createdAt,value
2023-07-18T00:02:29.820Z,80.00
2023-07-18T00:05:18.298Z,80.10
2023-07-18T00:08:06.041Z,80.80
2023-07-18T00:10:52.971Z,81.70
2023-07-18T00:13:39.925Z,81.40
2023-07-18T00:16:26.776Z,82.20
2023-07-18T00:19:13.932Z,81.60
2023-07-18T00:22:02.414Z,81.40
2023-07-18T00:24:50.593Z,81.70
2023-07-18T00:27:39.669Z,82.30
2023-07-18T00:30:27.702Z,81.80
2023-07-18T00:33:15.269Z,81.50
2023-07-18T00:36:03.731Z,80.80
2023-07-18T00:38:53.574Z,80.50
2023-07-18T00:41:40.620Z,80.20
2023-07-18T00:44:27.802Z,80.80
2023-07-18T00:47:15.350Z,79.50
2023-07-18T00:50:03.450Z,80.20
2023-07-18T00:52:51.785Z,78.30
2023-07-18T00:55:40.932Z,80.00
2023-07-18T00:58:27.904Z,79.30
2023-07-18T01:01:14.957Z,80.40
2023-07-18T01:04:01.778Z,81.00
2023-07-18T01:06:50.356Z,80.60
2023-07-18T01:09:37.313Z,80.40
2023-07-18T01:12:25.572Z,80.50
2023-07-18T01:15:14.469Z,77.60
2023-07-18T01:18:04.590Z,78.80
2023-07-18T01:20:51.690Z,78.30
2023-07-18T01:23:40.008Z,78.00
2023-07-18T01:26:27.379Z,77.80
2023-07-18T01:29:14.578Z,78.60
2023-07-18T01:32:02.357Z,78.60
2023-07-18T01:34:49.694Z,78.80
2023-07-18T01:37:38.536Z,78.10
2023-07-18T01:40:28.021Z,79.70
2023-07-18T01:43:15.131Z,80.10
2023-07-18T01:46:03.044Z,81.00
2023-07-18T01:48:49.915Z,80.80
2023-07-18T01:51:38.753Z,80.80
2023-07-18T01:54:25.728Z,81.20
2023-07-18T01:57:14.627Z,81.70
2023-07-18T02:00:02.044Z,82.30
2023-07-18T02:02:52.794Z,82.70
2023-07-18T02:05:40.350Z,82.70
2023-07-18T02:08:27.355Z,83.30
2023-07-18T02:11:14.010Z,83.60
2023-07-18T02:14:04.658Z,84.10
2023-07-18T02:16:53.318Z,84.60
2023-07-18T02:19:41.314Z,85.00
2023-07-18T02:22:28.274Z,85.70
2023-07-18T02:25:18.904Z,86.40
2023-07-18T02:28:08.836Z,86.60
2023-07-18T02:30:57.269Z,86.80
2023-07-18T02:33:44.208Z,86.90
2023-07-18T02:36:31.178Z,86.90
2023-07-18T02:39:20.484Z,87.20
2023-07-18T02:42:08.824Z,87.50
2023-07-18T02:44:55.973Z,87.60
2023-07-18T02:47:44.279Z,88.10
2023-07-18T02:50:31.162Z,88.00
2023-07-18T02:53:17.956Z,88.10
2023-07-18T02:56:05.566Z,88.50
2023-07-18T02:58:52.975Z,89.40
2023-07-18T03:01:40.180Z,89.60
2023-07-18T03:04:29.044Z,90.00
2023-07-18T03:07:19.333Z,90.10
2023-07-18T03:10:09.155Z,90.30
2023-07-18T03:12:56.759Z,90.50
2023-07-18T03:15:43.860Z,90.60
2023-07-18T03:18:30.828Z,90.60
2023-07-18T03:21:19.824Z,90.70
2023-07-18T03:24:09.812Z,90.60
2023-07-18T03:26:57.017Z,90.80
2023-07-18T03:29:45.173Z,90.80
2023-07-18T03:32:32.271Z,91.10
2023-07-18T03:35:20.208Z,91.20
2023-07-18T03:38:08.686Z,91.40
2023-07-18T03:40:56.500Z,91.50
2023-07-18T03:43:43.576Z,91.50
2023-07-18T03:46:31.255Z,91.60
2023-07-18T03:49:18.232Z,91.60
2023-07-18T03:52:06.117Z,91.70
2023-07-18T03:54:54.298Z,91.90
2023-07-18T03:57:43.331Z,92.10
2023-07-18T04:00:30.328Z,92.10
2023-07-18T04:03:17.290Z,92.20
2023-07-18T04:06:04.444Z,92.40
2023-07-18T04:08:51.652Z,92.60
2023-07-18T04:11:42.524Z,92.70
2023-07-18T04:14:29.595Z,92.90
2023-07-18T04:17:17.562Z,93.10
2023-07-18T04:20:05.770Z,93.20
2023-07-18T04:22:52.664Z,93.40
2023-07-18T04:25:56.956Z,93.60
2023-07-18T04:28:45.549Z,93.70
2023-07-18T04:31:32.483Z,93.80
2023-07-18T04:34:20.328Z,94.00
2023-07-18T04:37:07.639Z,94.20
2023-07-18T04:39:54.480Z,94.30
2023-07-18T04:42:41.410Z,94.40
2023-07-18T04:45:30.700Z,94.50
2023-07-18T04:48:19.415Z,94.60
2023-07-18T04:51:07.109Z,94.60
2023-07-18T04:53:54.222Z,94.70
2023-07-18T04:56:41.744Z,94.70
2023-07-18T04:59:28.829Z,94.70
2023-07-18T05:02:17.245Z,94.70
2023-07-18T05:05:04.433Z,94.70
2023-07-18T05:07:52.498Z,94.70
2023-07-18T05:10:40.484Z,94.60
2023-07-18T05:13:27.634Z,94.70
2023-07-18T05:16:14.859Z,94.40
2023-07-18T05:19:03.683Z,94.00
2023-07-18T05:21:51.553Z,94.00
2023-07-18T05:24:47.865Z,92.00
2023-07-18T05:27:34.947Z,92.30
2023-07-18T05:30:22.150Z,90.90
2023-07-18T05:33:10.057Z,90.60
2023-07-18T05:35:58.525Z,87.80
2023-07-18T05:38:46.442Z,86.40
2023-07-18T05:41:33.720Z,83.80
2023-07-18T05:44:20.985Z,83.30
2023-07-18T05:47:08.428Z,82.50
2023-07-18T05:49:55.336Z,80.80
2023-07-18T05:52:43.930Z,78.40
2023-07-18T05:55:30.956Z,78.50
2023-07-18T05:58:17.815Z,76.90
2023-07-18T06:01:15.813Z,75.30
2023-07-18T06:04:03.249Z,72.90
2023-07-18T06:06:50.131Z,72.60
2023-07-18T06:09:39.223Z,71.80
2023-07-18T06:12:26.424Z,69.80
2023-07-18T06:15:13.264Z,70.30
2023-07-18T06:18:00.870Z,69.60
2023-07-18T06:20:47.951Z,68.40
2023-07-18T06:23:34.872Z,67.30
2023-07-18T06:26:23.661Z,65.30
2023-07-18T06:29:10.801Z,63.60
2023-07-18T06:31:59.282Z,64.10
2023-07-18T06:34:46.587Z,63.30
2023-07-18T06:37:33.763Z,62.90
2023-07-18T06:40:21.071Z,61.20
2023-07-18T06:43:09.980Z,60.80
2023-07-18T06:45:57.301Z,60.80
2023-07-18T06:48:44.321Z,60.40
2023-07-18T06:51:31.404Z,60.60
2023-07-18T06:54:18.200Z,58.80
2023-07-18T06:57:05.427Z,57.60
2023-07-18T06:59:53.954Z,57.80
2023-07-18T07:02:40.976Z,56.50
2023-07-18T07:05:28.330Z,55.90
2023-07-18T07:08:20.014Z,56.40
2023-07-18T07:11:07.943Z,55.00
2023-07-18T07:13:55.174Z,54.60
2023-07-18T07:16:44.339Z,54.00
2023-07-18T07:19:31.371Z,55.20
2023-07-18T07:22:18.577Z,55.50
2023-07-18T07:25:06.137Z,54.70
2023-07-18T07:27:52.994Z,53.50
2023-07-18T07:30:40.112Z,52.40
2023-07-18T07:33:28.267Z,51.10
2023-07-18T07:36:16.447Z,49.50
2023-07-18T07:39:04.505Z,48.80
2023-07-18T07:41:51.436Z,45.90
2023-07-18T07:44:38.486Z,43.80
2023-07-18T07:47:25.348Z,42.50
2023-07-18T07:50:14.528Z,42.10
2023-07-18T07:53:02.246Z,39.70
2023-07-18T07:55:49.906Z,39.20
2023-07-18T07:58:38.271Z,37.40
2023-07-18T08:01:25.431Z,36.80
2023-07-18T08:04:12.782Z,36.50
2023-07-18T08:07:01.758Z,35.40
2023-07-18T08:09:49.085Z,35.20
2023-07-18T08:12:35.964Z,35.10
2023-07-18T08:15:23.390Z,34.40
2023-07-18T08:18:10.313Z,33.50
2023-07-18T08:20:57.494Z,32.40
2023-07-18T08:23:46.336Z,32.50
2023-07-18T08:26:33.191Z,32.00
2023-07-18T08:29:20.518Z,31.50
2023-07-18T08:32:07.818Z,30.70
2023-07-18T08:34:54.759Z,31.20
2023-07-18T08:37:41.836Z,31.40
2023-07-18T08:40:30.602Z,32.00
2023-07-18T08:43:19.588Z,32.40
2023-07-18T08:46:06.964Z,30.90
2023-07-18T08:48:55.255Z,30.80
2023-07-18T08:51:43.091Z,30.30
2023-07-18T08:54:30.332Z,31.10
2023-07-18T08:57:21.744Z,31.30
2023-07-18T09:00:12.643Z,30.30
2023-07-18T09:03:00.028Z,30.00
2023-07-18T09:05:46.781Z,29.90
2023-07-18T09:08:45.260Z,28.50
2023-07-18T09:11:32.199Z,28.70
2023-07-18T09:14:26.718Z,29.30
2023-07-18T09:17:13.985Z,29.00
2023-07-18T09:20:09.608Z,29.20
2023-07-18T09:22:58.777Z,28.00
2023-07-18T09:25:45.877Z,28.30
2023-07-18T09:28:34.529Z,27.90
2023-07-18T09:31:26.125Z,28.20
2023-07-18T09:34:14.778Z,28.50
2023-07-18T09:37:04.804Z,28.60
2023-07-18T09:39:52.009Z,28.40
2023-07-18T09:42:45.230Z,28.50
2023-07-18T09:45:35.452Z,28.30
2023-07-18T09:48:25.130Z,28.90
2023-07-18T09:51:15.681Z,29.20
2023-07-18T09:54:05.932Z,29.10
2023-07-18T09:56:55.382Z,29.90
2023-07-18T09:59:42.874Z,31.70
2023-07-18T10:02:29.745Z,31.40
2023-07-18T10:05:19.970Z,34.30
2023-07-18T10:08:08.639Z,33.90
2023-07-18T10:11:05.516Z,34.30
2023-07-18T10:14:15.719Z,35.90
2023-07-18T10:17:06.379Z,37.10
2023-07-18T10:19:55.573Z,39.20
2023-07-18T10:22:58.451Z,41.10
2023-07-18T10:25:57.614Z,43.30
2023-07-18T10:28:46.668Z,43.10
2023-07-18T10:31:37.831Z,43.90
2023-07-18T10:34:24.779Z,45.00
2023-07-18T10:37:11.875Z,44.50
2023-07-18T10:40:06.282Z,47.00
2023-07-18T10:42:53.081Z,48.50
2023-07-18T10:45:41.350Z,48.60
2023-07-18T10:48:31.804Z,48.80
2023-07-18T10:51:19.669Z,50.10
2023-07-18T10:54:07.359Z,53.60
2023-07-18T10:56:55.657Z,52.20
2023-07-18T10:59:45.728Z,50.50
2023-07-18T11:03:00.931Z,52.80
2023-07-18T11:05:50.019Z,51.90
2023-07-18T11:08:37.322Z,51.30
2023-07-18T11:11:24.429Z,50.50
2023-07-18T11:14:12.962Z,52.20
2023-07-18T11:17:00.645Z,54.10
2023-07-18T11:19:49.539Z,52.90
2023-07-18T11:22:37.135Z,55.10
2023-07-18T11:25:24.295Z,54.00
2023-07-18T11:28:13.012Z,50.80
2023-07-18T11:31:01.601Z,51.90
2023-07-18T11:33:50.552Z,49.80
2023-07-18T11:36:38.681Z,51.40
2023-07-18T11:39:25.929Z,50.20
2023-07-18T11:42:12.993Z,49.80
2023-07-18T11:44:59.846Z,49.80
2023-07-18T11:47:50.941Z,50.60
2023-07-18T11:50:38.377Z,50.00
2023-07-18T11:53:27.882Z,48.40
2023-07-18T11:56:15.099Z,47.30
2023-07-18T11:59:02.457Z,47.30
2023-07-18T12:01:49.558Z,47.20
2023-07-18T12:04:40.155Z,47.00
2023-07-18T12:07:27.144Z,46.80
2023-07-18T12:10:16.797Z,47.80
2023-07-18T12:13:04.277Z,48.40
2023-07-18T12:15:51.463Z,49.80
2023-07-18T12:18:39.922Z,51.90
2023-07-18T12:21:28.595Z,49.70
2023-07-18T12:24:15.872Z,51.30
2023-07-18T12:27:02.837Z,51.00
2023-07-18T12:29:50.237Z,50.80
2023-07-18T12:32:38.929Z,53.00
2023-07-18T12:35:27.672Z,54.70
2023-07-18T12:38:16.541Z,55.00
2023-07-18T12:41:03.565Z,56.20
2023-07-18T12:43:51.029Z,57.60
2023-07-18T12:46:38.280Z,56.70
2023-07-18T12:52:15.042Z,58.80
2023-07-18T12:55:03.656Z,59.10
2023-07-18T12:57:52.002Z,59.70
2023-07-18T13:00:39.245Z,61.10
2023-07-18T13:03:30.189Z,62.40
2023-07-18T13:06:19.966Z,62.50
2023-07-18T13:09:07.374Z,63.30
2023-07-18T13:11:55.754Z,65.50
2023-07-18T13:14:43.008Z,69.00
2023-07-18T13:17:30.292Z,71.10
2023-07-18T13:20:20.030Z,70.50
2023-07-18T13:23:08.218Z,68.00
2023-07-18T13:25:55.287Z,68.70
2023-07-18T13:28:43.841Z,69.00
2023-07-18T13:31:30.770Z,69.80
2023-07-18T13:34:19.100Z,70.70
2023-07-18T13:37:06.586Z,70.50
2023-07-18T13:39:53.848Z,72.80
2023-07-18T13:42:40.960Z,70.80
2023-07-18T13:45:29.342Z,71.40
2023-07-18T13:48:16.462Z,70.60
2023-07-18T13:51:04.225Z,68.90
2023-07-18T13:53:52.485Z,67.20
2023-07-18T13:56:39.522Z,67.60
2023-07-18T13:59:27.201Z,67.40
2023-07-18T14:02:15.752Z,68.90
2023-07-18T14:05:03.227Z,69.60
2023-07-18T14:07:50.151Z,70.20
2023-07-18T14:10:37.485Z,69.30
2023-07-18T14:13:24.797Z,69.00
2023-07-18T14:16:12.903Z,68.70
2023-07-18T14:19:03.341Z,69.10
2023-07-18T14:21:50.425Z,68.20
2023-07-18T14:24:37.418Z,67.60
2023-07-18T14:27:24.535Z,65.90
2023-07-18T14:30:11.939Z,65.00
2023-07-18T14:32:59.307Z,63.40
2023-07-18T14:35:47.816Z,63.30
2023-07-18T14:38:34.696Z,63.50
2023-07-18T14:41:22.072Z,64.40
2023-07-18T14:44:11.841Z,62.80
2023-07-18T14:46:59.672Z,63.20
2023-07-18T14:49:46.854Z,60.70
2023-07-18T14:52:35.261Z,61.00
2023-07-18T14:55:22.362Z,61.70
2023-07-18T14:58:09.758Z,60.60
2023-07-18T15:00:56.491Z,60.50
2023-07-18T15:03:43.785Z,60.70
2023-07-18T15:06:30.966Z,61.10
2023-07-18T15:09:22.075Z,61.10
2023-07-18T15:12:09.751Z,61.10
2023-07-18T15:14:56.839Z,63.00
2023-07-18T15:17:45.471Z,62.80
2023-07-18T15:20:32.314Z,61.70
2023-07-18T15:23:19.414Z,61.70
2023-07-18T15:26:07.934Z,62.30
2023-07-18T15:28:54.894Z,63.30
2023-07-18T15:31:41.971Z,62.90
2023-07-18T15:34:30.702Z,63.50
2023-07-18T15:37:18.150Z,62.70
2023-07-18T15:40:06.038Z,63.60
2023-07-18T15:42:55.340Z,61.50
2023-07-18T15:45:42.293Z,63.10
2023-07-18T15:48:29.241Z,64.70
2023-07-18T15:51:16.449Z,65.90
2023-07-18T15:54:05.491Z,66.30
2023-07-18T15:56:52.726Z,65.40
2023-07-18T15:59:41.495Z,64.80
2023-07-18T16:02:28.477Z,65.20
2023-07-18T16:05:16.987Z,66.10
2023-07-18T16:08:03.839Z,64.00
2023-07-18T16:10:51.216Z,61.60
2023-07-18T16:13:40.200Z,61.20
2023-07-18T16:16:28.967Z,60.20
2023-07-18T16:19:15.850Z,61.30
2023-07-18T16:22:02.838Z,60.30
2023-07-18T16:24:50.126Z,59.90
2023-07-18T16:27:36.916Z,61.60
2023-07-18T16:30:24.011Z,62.00
2023-07-18T16:33:12.601Z,61.80
2023-07-18T16:36:01.501Z,59.40
2023-07-18T16:38:49.786Z,59.80
2023-07-18T16:41:39.995Z,59.90
2023-07-18T16:44:27.199Z,59.30
2023-07-18T16:47:14.083Z,58.30
2023-07-18T16:50:02.770Z,58.50
2023-07-18T16:52:50.072Z,59.20
2023-07-18T16:55:37.237Z,59.00
2023-07-18T16:58:24.324Z,59.00
2023-07-18T17:01:12.699Z,59.10
2023-07-18T17:04:00.875Z,58.30
2023-07-18T17:06:50.719Z,58.10
2023-07-18T17:09:37.941Z,58.50
2023-07-18T17:12:24.719Z,58.70
2023-07-18T17:15:12.753Z,58.30
2023-07-18T17:17:59.828Z,58.50
2023-07-18T17:20:46.967Z,58.70
2023-07-18T17:23:35.272Z,59.00
2023-07-18T17:26:23.271Z,59.50
2023-07-18T17:29:10.628Z,59.50
2023-07-18T17:31:57.535Z,59.80
2023-07-18T17:34:44.548Z,59.60
2023-07-18T17:37:31.949Z,60.00
2023-07-18T17:40:20.339Z,61.20
2023-07-18T17:43:07.731Z,60.60
2023-07-18T17:45:55.070Z,60.50
2023-07-18T17:48:42.748Z,62.20
2023-07-18T17:51:30.671Z,62.60
2023-07-18T17:54:19.359Z,61.80
2023-07-18T17:57:08.833Z,62.40
2023-07-18T17:59:56.638Z,61.30
2023-07-18T18:02:43.645Z,61.60
2023-07-18T18:05:37.561Z,61.10
2023-07-18T18:08:24.486Z,62.00
2023-07-18T18:11:11.408Z,61.50
2023-07-18T18:14:00.231Z,61.60
2023-07-18T18:16:47.520Z,62.60
2023-07-18T18:19:34.597Z,63.30
2023-07-18T18:22:22.146Z,62.90
2023-07-18T18:25:10.399Z,63.10
2023-07-18T18:27:57.780Z,64.80
2023-07-18T18:30:46.551Z,64.30
2023-07-18T18:33:33.905Z,64.40
2023-07-18T18:36:24.822Z,63.60
2023-07-18T18:39:13.280Z,64.30
2023-07-18T18:42:00.137Z,64.80
2023-07-18T18:44:47.245Z,64.60
2023-07-18T18:47:37.038Z,64.50
2023-07-18T18:50:24.106Z,64.10
2023-07-18T18:53:11.022Z,64.30
2023-07-18T18:55:59.507Z,63.80
2023-07-18T18:58:46.753Z,65.10
2023-07-18T19:01:34.057Z,63.90
2023-07-18T19:04:22.750Z,64.20
2023-07-18T19:07:09.998Z,64.10
2023-07-18T19:09:57.279Z,63.60
2023-07-18T19:12:44.444Z,63.50
2023-07-18T19:15:31.516Z,63.20
2023-07-18T19:18:18.630Z,64.00
2023-07-18T19:21:06.980Z,65.10
2023-07-18T19:23:54.092Z,66.40
2023-07-18T19:26:41.465Z,65.70
2023-07-18T19:29:28.689Z,65.30
2023-07-18T19:32:15.851Z,67.10
2023-07-18T19:35:04.045Z,67.90
2023-07-18T19:37:53.273Z,68.50
2023-07-18T19:40:40.102Z,70.10
2023-07-18T19:43:27.332Z,70.50
2023-07-18T19:46:14.749Z,71.10
2023-07-18T19:49:01.949Z,70.90
2023-07-18T19:51:49.277Z,71.70
2023-07-18T19:54:37.433Z,72.50
2023-07-18T19:57:24.341Z,72.90
2023-07-18T20:00:11.821Z,73.70
2023-07-18T20:02:58.745Z,73.80
2023-07-18T20:05:45.859Z,74.50
2023-07-18T20:08:33.141Z,74.10
2023-07-18T20:11:21.737Z,74.50
2023-07-18T20:14:08.926Z,75.50
2023-07-18T20:16:56.340Z,75.30
2023-07-18T20:19:44.627Z,75.70
2023-07-18T20:22:32.023Z,76.30
2023-07-18T20:25:19.216Z,76.10
2023-07-18T20:28:07.657Z,76.30
2023-07-18T20:30:54.818Z,75.60
2023-07-18T20:33:43.735Z,76.30
2023-07-18T20:36:31.091Z,76.50
2023-07-18T20:39:18.058Z,76.50
2023-07-18T20:42:05.425Z,76.70
2023-07-18T20:44:53.849Z,76.00
2023-07-18T20:47:41.303Z,76.60
2023-07-18T20:50:28.398Z,77.00
2023-07-18T20:53:15.106Z,78.20
2023-07-18T20:56:02.310Z,78.50
2023-07-18T20:58:49.481Z,76.20
2023-07-18T21:01:38.025Z,74.30
2023-07-18T21:04:25.210Z,73.70
2023-07-18T21:07:12.460Z,73.30
2023-07-18T21:09:59.330Z,73.80
2023-07-18T21:12:46.867Z,73.70
2023-07-18T21:15:34.413Z,73.50
2023-07-18T21:18:23.769Z,72.70
2023-07-18T21:21:11.239Z,72.60
2023-07-18T21:23:59.203Z,73.00
2023-07-18T21:26:46.386Z,73.90
2023-07-18T21:29:33.422Z,74.60
2023-07-18T21:32:20.430Z,74.70
2023-07-18T21:35:09.817Z,75.20
2023-07-18T21:37:56.984Z,75.60
2023-07-18T21:40:44.123Z,76.40
2023-07-18T21:43:31.315Z,76.80
2023-07-18T21:46:18.849Z,78.00
2023-07-18T21:49:05.967Z,78.30
2023-07-18T21:51:54.107Z,78.70
2023-07-18T21:54:41.284Z,79.20
2023-07-18T21:57:28.203Z,79.50
2023-07-18T22:00:15.940Z,79.40
2023-07-18T22:03:02.879Z,80.10
2023-07-18T22:05:51.380Z,80.10
2023-07-18T22:08:40.213Z,80.20
2023-07-18T22:11:27.358Z,80.00
2023-07-18T22:14:14.400Z,80.70
2023-07-18T22:17:01.683Z,81.50
2023-07-18T22:19:48.600Z,82.40
2023-07-18T22:22:35.723Z,83.10
2023-07-18T22:25:24.328Z,82.80
2023-07-18T22:28:11.667Z,83.00
2023-07-18T22:30:58.609Z,82.90
2023-07-18T22:33:45.581Z,82.40
2023-07-18T22:36:32.624Z,83.20
2023-07-18T22:39:33.487Z,84.50
2023-07-18T22:42:24.584Z,83.40
2023-07-18T22:45:12.303Z,83.30
2023-07-18T22:47:59.669Z,83.30
2023-07-18T22:50:46.666Z,84.00
2023-07-18T22:53:34.272Z,84.60
2023-07-18T22:56:22.194Z,85.10
2023-07-18T22:59:10.867Z,85.30
2023-07-18T23:01:57.929Z,85.80
2023-07-18T23:04:44.823Z,85.90
2023-07-18T23:07:31.757Z,86.20
2023-07-18T23:10:18.859Z,86.60
2023-07-18T23:13:05.553Z,86.80
2023-07-18T23:15:54.465Z,87.10
2023-07-18T23:18:41.490Z,87.10
2023-07-18T23:21:28.202Z,87.50
2023-07-18T23:24:15.476Z,88.10
2023-07-18T23:27:02.681Z,87.70
2023-07-18T23:29:49.439Z,88.20
2023-07-18T23:32:37.886Z,88.30
2023-07-18T23:35:26.878Z,88.80
2023-07-18T23:38:13.839Z,89.30
2023-07-18T23:41:00.836Z,88.90
2023-07-18T23:43:48.139Z,89.00
2023-07-18T23:46:35.256Z,89.20
2023-07-18T23:49:23.809Z,87.80
2023-07-18T23:52:10.822Z,88.30
2023-07-18T23:54:57.974Z,87.40
2023-07-18T23:57:45.322Z,86.90
